Time;durP1;ratioP1;P1;durP2;ratioP2;P2;SDS_P1;SDS_P2;PMS_P1;PMS_P2;Temp;Humidity;BMP_temperature;BMP_pressure;BME280_temperature;BME280_humidity;BME280_pressure;Samples;Min_cycle;Max_cycle;Signal;HPM_P1;HPM_P2
2021/09/19 00:00:40;;;;;;;5.63;2.92;;;;;;;;;;5027002;28;20049;-65
2021/09/19 00:03:06;;;;;;;11.98;4.28;;;;;;;;;;5026151;28;20450;-64
2021/09/19 00:05:33;;;;;;;5.53;3.35;;;;;;;;;;5024457;28;20045;-65
2021/09/19 00:08:00;;;;;;;5.63;3.10;;;;;;;;;;5023505;28;20141;-65
2021/09/19 00:10:26;;;;;;;3.90;3.03;;;;;;;;;;5024062;28;20090;-65
2021/09/19 00:12:53;;;;;;;5.85;2.92;;;;;;;;;;5023396;28;20124;-65
2021/09/19 00:15:19;;;;;;;8.90;3.45;;;;;;;;;;5028324;28;20133;-65
2021/09/19 00:17:46;;;;;;;4.35;2.70;;;;;;;;;;5023760;28;20585;-65
2021/09/19 00:20:14;;;;;;;12.20;3.22;;;;;;;;;;5028932;28;20046;-65
2021/09/19 00:22:41;;;;;;;;;;;;;;;;;;5028445;28;20160;-65
2021/09/19 00:25:09;;;;;;;5.03;3.10;;;;;;;;;;5026738;28;19956;-65
2021/09/19 00:27:35;;;;;;;4.95;3.38;;;;;;;;;;5028844;28;20049;-64
2021/09/19 00:30:04;;;;;;;5.28;3.00;;;;;;;;;;5025167;28;20671;-64
2021/09/19 00:32:30;;;;;;;8.57;3.33;;;;;;;;;;5025068;28;20144;-64
2021/09/19 00:34:57;;;;;;;5.67;2.93;;;;;;;;;;5025202;28;20173;-64
2021/09/19 00:37:23;;;;;;;9.38;3.40;;;;;;;;;;5026197;28;20144;-64
2021/09/19 00:39:51;;;;;;;6.53;2.90;;;;;;;;;;5027700;28;20076;-64
2021/09/19 00:42:19;;;;;;;7.47;3.38;;;;;;;;;;5025882;28;20049;-65
2021/09/19 00:44:45;;;;;;;8.35;2.75;;;;;;;;;;5025731;28;20121;-64
2021/09/19 00:47:12;;;;;;;5.10;3.35;;;;;;;;;;5025302;28;20119;-64
2021/09/19 00:49:39;;;;;;;6.80;3.20;;;;;;;;;;5024435;28;20564;-65
2021/09/19 00:52:05;;;;;;;6.75;3.33;;;;;;;;;;5026170;28;20144;-64
2021/09/19 00:54:41;;;;;;;5.43;2.90;;;;;;;;;;5026619;28;20081;-65
2021/09/19 00:57:08;;;;;;;5.38;3.03;;;;;;;;;;5024141;28;20168;-65
2021/09/19 00:59:35;;;;;;;4.63;3.00;;;;;;;;;;5024884;28;20057;-64
2021/09/19 01:02:02;;;;;;;8.60;3.15;;;;;;;;;;5026293;28;20081;-65
2021/09/19 01:04:29;;;;;;;9.25;3.28;;;;;;;;;;5024925;28;20828;-64
2021/09/19 01:06:55;;;;;;;6.05;2.65;;;;;;;;;;5020413;28;20140;-65
2021/09/19 01:09:21;;;;;;;6.85;3.15;;;;;;;;;;5025598;28;20149;-65
2021/09/19 01:11:49;;;;;;;4.60;2.90;;;;;;;;;;5023470;28;20800;-65
2021/09/19 01:14:16;;;;;;;4.88;3.03;;;;;;;;;;5025040;28;20049;-65
2021/09/19 01:16:43;;;;;;;4.72;2.70;;;;;;;;;;5024289;28;20436;-65
2021/09/19 01:19:20;;;;;;;6.53;2.90;;;;;;;;;;5025913;28;20087;-65
2021/09/19 01:21:48;;;;;;;8.15;2.72;;;;;;;;;;5025057;28;20076;-65
2021/09/19 01:24:15;;;;;;;6.68;3.13;;;;;;;;;;5025567;28;20141;-65
2021/09/19 01:26:42;;;;;;;8.27;3.28;;;;;;;;;;5018442;28;20128;-65
2021/09/19 01:29:08;;;;;;;3.63;2.95;;;;;;;;;;5027691;28;20053;-64
2021/09/19 01:31:38;;;;;;;7.22;3.30;;;;;;;;;;5021728;28;20520;-65
2021/09/19 01:34:05;;;;;;;5.07;2.78;;;;;;;;;;5023474;28;20050;-65
2021/09/19 01:36:32;;;;;;;6.68;3.33;;;;;;;;;;5022233;28;20069;-65
2021/09/19 01:38:59;;;;;;;5.15;3.22;;;;;;;;;;5021291;28;20160;-65
2021/09/19 01:41:26;;;;;;;7.60;3.20;;;;;;;;;;5022714;28;20089;-65
2021/09/19 01:43:55;;;;;;;4.60;3.08;;;;;;;;;;5026891;28;20083;-65
2021/09/19 01:46:22;;;;;;;7.18;2.90;;;;;;;;;;5029091;28;20077;-65
2021/09/19 01:48:49;;;;;;;5.35;2.80;;;;;;;;;;5025932;28;20042;-64
2021/09/19 01:51:15;;;;;;;5.15;2.72;;;;;;;;;;5025306;28;20057;-65
2021/09/19 01:53:42;;;;;;;7.82;2.50;;;;;;;;;;5028862;28;20073;-64
2021/09/19 01:56:10;;;;;;;6.72;2.70;;;;;;;;;;5022696;28;20486;-65
2021/09/19 01:58:41;;;;;;;3.40;2.27;;;;;;;;;;5019716;28;20194;-64
2021/09/19 02:01:07;;;;;;;5.35;2.90;;;;;;;;;;5007892;28;20076;-65
2021/09/19 02:03:35;;;;;;;4.37;2.50;;;;;;;;;;5022141;28;20057;-65
2021/09/19 02:06:03;;;;;;;4.53;2.90;;;;;;;;;;5027224;28;20300;-65
2021/09/19 02:08:30;;;;;;;4.25;2.80;;;;;;;;;;5022716;28;20514;-65
2021/09/19 02:10:56;;;;;;;7.00;2.83;;;;;;;;;;5022937;28;20136;-65
2021/09/19 02:13:23;;;;;;;8.90;3.17;;;;;;;;;;5023270;28;20132;-65
2021/09/19 02:15:50;;;;;;;5.82;3.08;;;;;;;;;;5020817;28;20136;-65
2021/09/19 02:18:16;;;;;;;5.72;2.83;;;;;;;;;;5018745;28;20561;-65
2021/09/19 02:20:43;;;;;;;6.10;2.95;;;;;;;;;;5020410;28;20061;-64
2021/09/19 02:23:10;;;;;;;7.53;3.50;;;;;;;;;;5024300;28;20052;-65
2021/09/19 02:25:36;;;;;;;4.82;3.20;;;;;;;;;;5026928;28;20137;-64
2021/09/19 02:28:03;;;;;;;7.45;3.17;;;;;;;;;;5025208;28;20041;-64
2021/09/19 02:30:29;;;;;;;6.23;3.07;;;;;;;;;;5019668;28;20133;-65
2021/09/19 02:32:56;;;;;;;5.18;2.58;;;;;;;;;;5023298;28;20120;-65
2021/09/19 02:35:22;;;;;;;4.75;2.90;;;;;;;;;;5024016;28;20141;-64
2021/09/19 02:37:49;;;;;;;5.80;3.25;;;;;;;;;;5019485;28;20042;-65
2021/09/19 02:40:16;;;;;;;6.32;3.15;;;;;;;;;;5022631;28;20081;-64
2021/09/19 02:42:42;;;;;;;4.70;2.53;;;;;;;;;;5019778;28;20092;-65
2021/09/19 02:45:10;;;;;;;6.30;2.77;;;;;;;;;;5004334;28;20132;-65
2021/09/19 02:47:37;;;;;;;5.68;2.92;;;;;;;;;;5018751;28;20331;-65
2021/09/19 02:50:05;;;;;;;5.97;3.03;;;;;;;;;;5020165;28;20137;-64
2021/09/19 02:52:31;;;;;;;3.97;2.85;;;;;;;;;;5022212;28;20124;-65
2021/09/19 02:54:58;;;;;;;6.75;2.67;;;;;;;;;;5024157;28;20081;-65
2021/09/19 02:57:24;;;;;;;10.10;3.30;;;;;;;;;;5023817;28;20045;-65
2021/09/19 02:59:51;;;;;;;4.93;2.83;;;;;;;;;;5021810;28;20515;-65
2021/09/19 03:02:17;;;;;;;4.45;3.08;;;;;;;;;;5023746;28;20565;-65
2021/09/19 03:04:44;;;;;;;6.85;2.72;;;;;;;;;;5006648;28;20713;-65
2021/09/19 03:07:11;;;;;;;5.33;2.93;;;;;;;;;;5025827;28;20073;-65
2021/09/19 03:09:38;;;;;;;5.45;2.60;;;;;;;;;;5023607;28;20049;-65
2021/09/19 03:12:05;;;;;;;;;;;;;;;;;;5021708;28;20129;-64
2021/09/19 03:14:32;;;;;;;5.50;2.92;;;;;;;;;;5023477;28;19972;-64
2021/09/19 03:16:58;;;;;;;6.75;3.03;;;;;;;;;;5020925;28;20124;-64
2021/09/19 03:19:24;;;;;;;10.05;3.05;;;;;;;;;;5021851;28;20132;-65
2021/09/19 03:21:51;;;;;;;8.10;2.90;;;;;;;;;;5018507;28;20557;-64
2021/09/19 03:24:17;;;;;;;4.78;2.67;;;;;;;;;;5024701;28;20137;-65
2021/09/19 03:26:44;;;;;;;6.15;3.10;;;;;;;;;;5021952;28;20128;-65
2021/09/19 03:29:10;;;;;;;3.38;2.80;;;;;;;;;;5019850;28;20132;-65
2021/09/19 03:31:37;;;;;;;4.68;3.00;;;;;;;;;;5030157;28;20049;-65
2021/09/19 03:34:03;;;;;;;4.68;2.58;;;;;;;;;;5030172;28;20088;-65
2021/09/19 03:36:30;;;;;;;13.83;3.13;;;;;;;;;;5024453;28;20077;-65
2021/09/19 03:38:56;;;;;;;6.05;2.75;;;;;;;;;;5020497;28;20375;-65
2021/09/19 03:41:23;;;;;;;6.00;2.88;;;;;;;;;;5025345;28;20077;-65
2021/09/19 03:43:50;;;;;;;9.23;2.97;;;;;;;;;;5032373;28;20182;-65
2021/09/19 03:46:16;;;;;;;6.87;2.80;;;;;;;;;;5021377;28;20424;-65
2021/09/19 03:48:43;;;;;;;7.70;3.00;;;;;;;;;;5027327;28;20056;-65
2021/09/19 03:51:09;;;;;;;7.77;2.83;;;;;;;;;;5024827;28;20137;-65
2021/09/19 03:53:36;;;;;;;5.65;3.60;;;;;;;;;;5024756;28;20557;-65
2021/09/19 03:56:02;;;;;;;6.03;2.60;;;;;;;;;;5028399;28;20484;-65
2021/09/19 03:58:29;;;;;;;3.67;2.72;;;;;;;;;;5021032;28;20121;-65
2021/09/19 04:00:55;;;;;;;5.28;3.00;;;;;;;;;;5027893;28;20216;-65
2021/09/19 04:03:22;;;;;;;5.60;3.00;;;;;;;;;;5025846;28;20042;-65
2021/09/19 04:05:49;;;;;;;5.50;3.00;;;;;;;;;;5026016;28;20049;-66
2021/09/19 04:08:16;;;;;;;6.25;3.08;;;;;;;;;;5023677;28;20142;-65
2021/09/19 04:10:42;;;;;;;9.93;3.15;;;;;;;;;;5024089;28;20133;-65
2021/09/19 04:13:09;;;;;;;6.50;3.00;;;;;;;;;;5026462;28;20636;-65
2021/09/19 04:15:35;;;;;;;6.25;3.00;;;;;;;;;;5024511;28;20051;-65
2021/09/19 04:18:02;;;;;;;4.93;2.85;;;;;;;;;;5010054;28;20125;-65
2021/09/19 04:20:29;;;;;;;7.60;2.95;;;;;;;;;;5022956;28;20485;-64
2021/09/19 04:22:55;;;;;;;8.75;3.25;;;;;;;;;;5030252;28;20054;-65
2021/09/19 04:25:21;;;;;;;5.53;3.20;;;;;;;;;;5025744;28;20058;-65
2021/09/19 04:27:49;;;;;;;6.55;3.47;;;;;;;;;;5024995;28;20095;-65
2021/09/19 04:30:15;;;;;;;5.53;2.92;;;;;;;;;;5025359;28;20140;-65
2021/09/19 04:32:42;;;;;;;6.82;3.15;;;;;;;;;;5023503;28;20037;-65
2021/09/19 04:35:09;;;;;;;13.15;3.10;;;;;;;;;;5023542;28;20046;-64
2021/09/19 04:37:36;;;;;;;4.65;2.97;;;;;;;;;;5024444;28;20053;-65
2021/09/19 04:40:04;;;;;;;4.50;2.88;;;;;;;;;;5024163;28;20045;-65
2021/09/19 04:42:32;;;;;;;5.30;3.22;;;;;;;;;;5023314;28;20053;-65
2021/09/19 04:44:58;;;;;;;4.80;2.95;;;;;;;;;;5019928;28;20081;-65
2021/09/19 04:47:24;;;;;;;6.80;2.97;;;;;;;;;;5022283;28;20128;-65
2021/09/19 04:49:51;;;;;;;4.03;2.75;;;;;;;;;;5028616;28;20081;-65
2021/09/19 04:52:18;;;;;;;11.77;3.20;;;;;;;;;;5025709;28;20079;-65
2021/09/19 04:54:44;;;;;;;5.07;2.78;;;;;;;;;;5022921;28;20053;-65
2021/09/19 04:57:11;;;;;;;10.00;3.28;;;;;;;;;;5030274;28;20132;-65
2021/09/19 04:59:37;;;;;;;4.43;3.10;;;;;;;;;;5025292;28;20149;-65
2021/09/19 05:02:04;;;;;;;5.82;3.15;;;;;;;;;;5020716;28;20133;-65
2021/09/19 05:04:31;;;;;;;6.35;3.60;;;;;;;;;;5024000;28;20049;-65
2021/09/19 05:06:58;;;;;;;6.63;3.50;;;;;;;;;;5021873;28;20088;-65
2021/09/19 05:09:24;;;;;;;4.40;3.50;;;;;;;;;;5016064;28;20086;-65
2021/09/19 05:11:51;;;;;;;7.25;3.20;;;;;;;;;;5021159;28;20095;-65
2021/09/19 05:14:18;;;;;;;5.78;3.40;;;;;;;;;;5024201;28;20048;-64
2021/09/19 05:16:44;;;;;;;5.63;3.47;;;;;;;;;;5023309;28;20132;-64
2021/09/19 05:19:11;;;;;;;4.80;3.45;;;;;;;;;;5021573;28;20616;-65
2021/09/19 05:21:37;;;;;;;7.90;3.65;;;;;;;;;;5023729;28;20145;-65
2021/09/19 05:24:04;;;;;;;4.80;3.40;;;;;;;;;;5026787;28;20477;-65
2021/09/19 05:26:31;;;;;;;7.80;3.27;;;;;;;;;;5022009;28;20085;-64
2021/09/19 05:28:57;;;;;;;4.93;3.15;;;;;;;;;;5021212;28;20717;-65
2021/09/19 05:31:23;;;;;;;11.13;3.55;;;;;;;;;;5027644;28;20067;-65
2021/09/19 05:33:50;;;;;;;5.50;3.35;;;;;;;;;;5023256;28;20052;-65
2021/09/19 05:36:17;;;;;;;5.90;3.40;;;;;;;;;;5022092;28;20091;-65
2021/09/19 05:38:43;;;;;;;5.97;3.10;;;;;;;;;;5021501;28;20128;-65
2021/09/19 05:41:10;;;;;;;4.78;3.22;;;;;;;;;;5027243;28;20103;-64
2021/09/19 05:43:37;;;;;;;5.65;3.35;;;;;;;;;;5021883;28;20081;-64
2021/09/19 05:46:03;;;;;;;6.72;3.55;;;;;;;;;;5021674;28;20136;-64
2021/09/19 05:48:30;;;;;;;5.70;3.03;;;;;;;;;;5020990;28;20050;-64
2021/09/19 05:50:56;;;;;;;8.27;3.45;;;;;;;;;;5023709;28;20132;-65
2021/09/19 05:53:22;;;;;;;6.43;3.67;;;;;;;;;;5020101;28;20147;-64
2021/09/19 05:55:49;;;;;;;5.90;3.57;;;;;;;;;;5025030;28;20080;-65
2021/09/19 05:58:16;;;;;;;8.32;3.47;;;;;;;;;;5021362;28;20316;-65
2021/09/19 06:00:42;;;;;;;5.95;3.13;;;;;;;;;;5024726;28;20084;-64
2021/09/19 06:03:09;;;;;;;;;;;;;;;;;;5024581;28;20702;-64
2021/09/19 06:05:36;;;;;;;4.63;3.10;;;;;;;;;;5025844;28;20463;-64
2021/09/19 06:08:02;;;;;;;6.10;3.30;;;;;;;;;;5003097;28;20089;-65
2021/09/19 06:10:32;;;;;;;4.15;3.30;;;;;;;;;;5021594;28;20455;-64
2021/09/19 06:12:58;;;;;;;8.80;3.38;;;;;;;;;;5018493;28;20084;-64
2021/09/19 06:15:25;;;;;;;4.75;3.33;;;;;;;;;;5020400;28;20075;-64
2021/09/19 06:17:52;;;;;;;6.72;3.53;;;;;;;;;;5017253;28;20053;-64
2021/09/19 06:20:19;;;;;;;9.70;3.65;;;;;;;;;;5020646;28;20124;-64
2021/09/19 06:22:45;;;;;;;5.20;3.85;;;;;;;;;;5022637;28;20085;-65
2021/09/19 06:25:12;;;;;;;6.30;3.70;;;;;;;;;;5020317;28;20077;-65
2021/09/19 06:27:38;;;;;;;4.75;3.30;;;;;;;;;;5026507;28;20609;-64
2021/09/19 06:30:06;;;;;;;6.93;3.38;;;;;;;;;;5019370;28;20077;-64
2021/09/19 06:32:32;;;;;;;4.45;3.63;;;;;;;;;;5025868;28;20132;-65
2021/09/19 06:34:59;;;;;;;5.50;3.47;;;;;;;;;;5026301;28;20045;-64
2021/09/19 06:37:26;;;;;;;5.20;3.13;;;;;;;;;;5022281;28;20085;-65
2021/09/19 06:39:53;;;;;;;6.13;3.42;;;;;;;;;;5019237;28;20172;-64
2021/09/19 06:42:19;;;;;;;3.65;2.83;;;;;;;;;;5021830;28;20588;-64
2021/09/19 06:44:45;;;;;;;5.35;3.30;;;;;;;;;;5023788;28;20529;-64
2021/09/19 06:47:12;;;;;;;3.90;3.08;;;;;;;;;;5023592;28;20560;-64
2021/09/19 06:49:38;;;;;;;4.13;3.03;;;;;;;;;;5017656;28;20042;-64
2021/09/19 06:52:05;;;;;;;5.35;2.90;;;;;;;;;;5016795;28;20089;-64
2021/09/19 06:54:32;;;;;;;10.50;3.70;;;;;;;;;;5028382;28;20128;-64
2021/09/19 06:56:58;;;;;;;3.35;2.83;;;;;;;;;;5024097;28;20505;-64
2021/09/19 06:59:25;;;;;;;4.35;3.15;;;;;;;;;;5020789;28;20124;-64
2021/09/19 07:01:51;;;;;;;5.38;2.90;;;;;;;;;;5021803;28;20128;-64
2021/09/19 07:04:18;;;;;;;3.17;2.70;;;;;;;;;;5018384;28;20052;-64
2021/09/19 07:06:46;;;;;;;5.82;3.10;;;;;;;;;;5026118;28;20161;-64
2021/09/19 07:09:13;;;;;;;7.60;3.60;;;;;;;;;;5020959;28;20511;-64
2021/09/19 07:11:40;;;;;;;5.43;2.83;;;;;;;;;;5022875;28;20176;-65
2021/09/19 07:14:06;;;;;;;3.13;2.83;;;;;;;;;;5029761;28;20077;-64
2021/09/19 07:16:33;;;;;;;3.90;2.95;;;;;;;;;;5024600;28;20198;-64
2021/09/19 07:18:59;;;;;;;4.72;2.90;;;;;;;;;;5025382;28;20046;-64
2021/09/19 07:21:26;;;;;;;3.25;2.78;;;;;;;;;;5025011;28;20132;-64
2021/09/19 07:23:52;;;;;;;9.03;3.37;;;;;;;;;;5024732;28;20073;-64
2021/09/19 07:26:19;;;;;;;4.68;2.78;;;;;;;;;;5028050;28;20320;-64
2021/09/19 07:28:45;;;;;;;5.53;3.28;;;;;;;;;;5024692;28;20125;-64
2021/09/19 07:31:12;;;;;;;5.47;2.60;;;;;;;;;;5027825;28;20572;-64
2021/09/19 07:33:39;;;;;;;3.45;2.70;;;;;;;;;;5024692;28;20061;-64
2021/09/19 07:36:06;;;;;;;4.25;2.85;;;;;;;;;;5024205;28;20734;-64
2021/09/19 07:38:32;;;;;;;4.90;3.58;;;;;;;;;;5020187;28;20056;-64
2021/09/19 07:40:59;;;;;;;6.38;2.78;;;;;;;;;;5028103;28;20057;-64
2021/09/19 07:43:26;;;;;;;4.20;2.77;;;;;;;;;;5021920;28;20556;-64
2021/09/19 07:45:53;;;;;;;3.20;2.58;;;;;;;;;;5021697;28;20320;-64
2021/09/19 07:48:21;;;;;;;4.13;3.25;;;;;;;;;;5028635;28;20049;-64
2021/09/19 07:50:47;;;;;;;5.93;2.83;;;;;;;;;;5023593;28;20087;-64
2021/09/19 07:53:14;;;;;;;2.93;2.50;;;;;;;;;;5022615;28;20050;-64
2021/09/19 07:55:40;;;;;;;4.43;2.90;;;;;;;;;;5026233;28;20041;-64
2021/09/19 07:58:07;;;;;;;3.33;2.35;;;;;;;;;;5022707;28;20054;-64
2021/09/19 08:00:33;;;;;;;3.13;2.50;;;;;;;;;;5025248;28;20038;-64
2021/09/19 08:03:00;;;;;;;4.32;2.78;;;;;;;;;;5027521;28;20063;-66
2021/09/19 08:05:26;;;;;;;2.92;2.40;;;;;;;;;;5022097;28;20046;-64
2021/09/19 08:07:53;;;;;;;5.13;2.70;;;;;;;;;;5019994;28;20125;-65
2021/09/19 08:10:20;;;;;;;9.93;2.83;;;;;;;;;;5024879;28;20134;-64
2021/09/19 08:12:47;;;;;;;4.22;2.97;;;;;;;;;;5011058;28;20141;-64
2021/09/19 08:15:17;;;;;;;4.68;3.05;;;;;;;;;;5022319;28;20132;-64
2021/09/19 08:17:44;;;;;;;3.70;2.80;;;;;;;;;;5004401;28;20056;-64
2021/09/19 08:20:11;;;;;;;9.63;3.33;;;;;;;;;;5027308;28;20763;-66
2021/09/19 08:22:38;;;;;;;3.78;2.72;;;;;;;;;;5024167;28;20089;-64
2021/09/19 08:25:06;;;;;;;3.90;2.67;;;;;;;;;;5022011;28;20049;-64
2021/09/19 08:27:34;;;;;;;4.60;2.70;;;;;;;;;;5025896;28;20046;-64
2021/09/19 08:30:01;;;;;;;3.63;2.53;;;;;;;;;;5022226;28;20140;-64
2021/09/19 08:32:28;;;;;;;3.20;2.50;;;;;;;;;;5028846;28;20084;-64
2021/09/19 08:34:54;;;;;;;4.03;2.83;;;;;;;;;;5024205;28;20128;-64
2021/09/19 08:37:21;;;;;;;4.38;2.65;;;;;;;;;;5026033;28;20132;-64
2021/09/19 08:39:48;;;;;;;4.72;2.60;;;;;;;;;;5020185;28;20541;-64
2021/09/19 08:42:14;;;;;;;2.83;2.50;;;;;;;;;;5021815;28;20715;-62
2021/09/19 08:44:41;;;;;;;7.65;2.92;;;;;;;;;;5024921;28;20052;-62
2021/09/19 08:47:07;;;;;;;3.45;2.47;;;;;;;;;;5007982;28;20049;-62
2021/09/19 08:49:34;;;;;;;3.80;2.40;;;;;;;;;;5020537;28;20081;-62
2021/09/19 08:52:01;;;;;;;4.15;2.67;;;;;;;;;;5029547;28;20046;-62
2021/09/19 08:54:31;;;;;;;3.60;2.20;;;;;;;;;;5021989;28;20395;-62
2021/09/19 08:56:58;;;;;;;5.20;2.72;;;;;;;;;;5026193;28;20763;-62
2021/09/19 08:59:40;;;;;;;5.95;2.42;;;;;;;;;;5022252;28;20085;-62
2021/09/19 09:02:07;;;;;;;2.75;2.25;;;;;;;;;;5024861;28;20088;-62
2021/09/19 09:04:34;;;;;;;;;;;;;;;;;;5021413;28;20123;-62
2021/09/19 09:07:01;;;;;;;4.88;2.60;;;;;;;;;;5027036;28;19925;-62
2021/09/19 09:09:27;;;;;;;4.47;2.22;;;;;;;;;;5017611;28;20081;-62
2021/09/19 09:12:11;;;;;;;4.57;2.70;;;;;;;;;;5020642;28;20133;-62
2021/09/19 09:14:42;;;;;;;6.10;2.75;;;;;;;;;;5022366;28;20477;-62
2021/09/19 09:17:10;;;;;;;3.42;2.42;;;;;;;;;;5029034;28;20513;-62
2021/09/19 09:19:37;;;;;;;2.78;2.10;;;;;;;;;;5019907;28;20132;-62
2021/09/19 09:22:03;;;;;;;6.75;2.40;;;;;;;;;;5022558;28;20096;-61
2021/09/19 09:24:30;;;;;;;2.33;2.10;;;;;;;;;;5021447;28;20140;-61
2021/09/19 09:26:56;;;;;;;3.42;2.35;;;;;;;;;;5024026;28;20080;-61
2021/09/19 09:29:23;;;;;;;3.15;2.28;;;;;;;;;;5024231;28;20080;-61
2021/09/19 09:31:51;;;;;;;2.53;2.10;;;;;;;;;;5023949;28;20053;-62
2021/09/19 09:34:17;;;;;;;;;;;;;;;;;;5022193;28;20057;-61
2021/09/19 09:36:47;;;;;;;6.78;2.50;;;;;;;;;;5021093;28;19964;-61
2021/09/19 09:39:47;;;;;;;7.63;2.25;;;;;;;;;;5022850;28;20050;-63
2021/09/19 09:42:17;;;;;;;4.22;2.20;;;;;;;;;;4988476;28;20132;-62
2021/09/19 09:44:49;;;;;;;5.82;2.65;;;;;;;;;;5024842;28;20058;-65
2021/09/19 09:47:17;;;;;;;2.63;1.83;;;;;;;;;;5024420;28;20049;-61
2021/09/19 09:49:43;;;;;;;;;;;;;;;;;;5021687;28;20132;-62
2021/09/19 09:52:12;;;;;;;2.15;1.92;;;;;;;;;;5021596;28;19967;-63
2021/09/19 09:54:45;;;;;;;2.50;2.10;;;;;;;;;;5027023;28;20132;-62
2021/09/19 09:57:14;;;;;;;2.45;2.15;;;;;;;;;;5023711;28;20556;-62
2021/09/19 09:59:42;;;;;;;5.05;2.67;;;;;;;;;;5019904;28;20124;-62
2021/09/19 10:02:11;;;;;;;2.88;2.28;;;;;;;;;;5022395;28;20531;-62
2021/09/19 10:04:38;;;;;;;2.42;1.95;;;;;;;;;;5023424;28;20041;-63
2021/09/19 10:07:04;;;;;;;4.68;2.55;;;;;;;;;;5021852;28;20144;-62
2021/09/19 10:09:31;;;;;;;2.78;2.28;;;;;;;;;;5020071;28;20088;-62
2021/09/19 10:11:59;;;;;;;2.80;2.50;;;;;;;;;;5019022;28;20064;-62
2021/09/19 10:14:26;;;;;;;4.40;2.38;;;;;;;;;;5026938;28;20140;-63
2021/09/19 10:16:53;;;;;;;3.75;2.10;;;;;;;;;;5020908;28;20469;-62
2021/09/19 10:19:20;;;;;;;4.13;2.20;;;;;;;;;;5018655;28;20077;-62
2021/09/19 10:21:47;;;;;;;3.80;2.10;;;;;;;;;;5019521;28;20077;-62
2021/09/19 10:24:16;;;;;;;2.50;2.08;;;;;;;;;;5025200;28;20679;-62
2021/09/19 10:26:51;;;;;;;3.35;2.25;;;;;;;;;;5020270;28;20052;-62
2021/09/19 10:29:19;;;;;;;2.70;1.90;;;;;;;;;;5018462;28;20145;-63
2021/09/19 10:31:45;;;;;;;3.97;2.28;;;;;;;;;;5020498;28;20136;-62
2021/09/19 10:34:23;;;;;;;2.80;2.38;;;;;;;;;;5026561;28;20048;-62
2021/09/19 10:36:52;;;;;;;3.67;2.50;;;;;;;;;;5022249;28;20128;-62
2021/09/19 10:39:18;;;;;;;5.50;2.75;;;;;;;;;;5021870;28;20423;-62
2021/09/19 10:42:03;;;;;;;4.85;2.53;;;;;;;;;;5023860;28;20149;-63
2021/09/19 10:44:45;;;;;;;2.75;2.40;;;;;;;;;;5025063;28;20050;-63
2021/09/19 10:47:13;;;;;;;3.90;2.38;;;;;;;;;;5020993;28;20516;-63
2021/09/19 10:49:40;;;;;;;2.88;2.08;;;;;;;;;;5015248;28;20076;-63
2021/09/19 10:52:08;;;;;;;4.93;2.30;;;;;;;;;;5027445;28;20111;-64
2021/09/19 10:54:51;;;;;;;3.72;2.00;;;;;;;;;;5026042;28;20136;-63
2021/09/19 10:57:20;;;;;;;3.35;2.10;;;;;;;;;;5018782;28;20160;-63
2021/09/19 11:00:05;;;;;;;2.72;1.88;;;;;;;;;;5024146;28;20128;-63
2021/09/19 11:02:32;;;;;;;3.08;1.90;;;;;;;;;;5018663;28;20132;-64
2021/09/19 11:05:17;;;;;;;1.80;1.47;;;;;;;;;;5019903;28;20555;-64
2021/09/19 11:07:44;;;;;;;2.10;1.50;;;;;;;;;;5019497;28;20462;-63
2021/09/19 11:10:14;;;;;;;2.50;1.73;;;;;;;;;;5018710;28;20081;-63
2021/09/19 11:12:42;;;;;;;2.92;2.10;;;;;;;;;;5023854;28;20081;-63
2021/09/19 11:15:11;;;;;;;2.65;1.95;;;;;;;;;;5020269;28;20141;-63
2021/09/19 11:17:45;;;;;;;2.78;1.80;;;;;;;;;;5022426;28;20133;-63
2021/09/19 11:20:14;;;;;;;2.63;2.05;;;;;;;;;;5022408;28;20132;-63
2021/09/19 11:22:45;;;;;;;3.03;2.05;;;;;;;;;;5022488;28;20100;-64
2021/09/19 11:25:12;;;;;;;2.60;1.88;;;;;;;;;;5021896;28;20074;-63
2021/09/19 11:27:41;;;;;;;2.05;1.85;;;;;;;;;;5019895;28;20170;-63
2021/09/19 11:30:08;;;;;;;2.58;2.05;;;;;;;;;;5026094;28;20045;-63
2021/09/19 11:32:35;;;;;;;3.35;2.00;;;;;;;;;;5022828;28;20136;-63
2021/09/19 11:35:02;;;;;;;3.30;2.05;;;;;;;;;;5020779;28;20128;-63
2021/09/19 11:37:29;;;;;;;10.30;2.70;;;;;;;;;;5018822;28;20128;-63
2021/09/19 11:39:55;;;;;;;4.03;2.53;;;;;;;;;;5021946;28;20125;-63
2021/09/19 11:42:24;;;;;;;2.85;2.13;;;;;;;;;;5018578;28;20133;-63
2021/09/19 11:44:51;;;;;;;3.67;2.38;;;;;;;;;;5019348;28;20088;-64
2021/09/19 11:47:19;;;;;;;4.30;2.38;;;;;;;;;;5019798;28;20141;-63
2021/09/19 11:49:49;;;;;;;2.53;2.05;;;;;;;;;;5020512;28;20454;-63
2021/09/19 11:52:17;;;;;;;4.28;2.30;;;;;;;;;;5017761;28;20054;-63
2021/09/19 11:54:43;;;;;;;;;;;;;;;;;;5029628;28;20612;-64
2021/09/19 11:57:11;;;;;;;3.58;2.22;;;;;;;;;;5023261;28;20832;-63
2021/09/19 11:59:45;;;;;;;4.95;2.42;;;;;;;;;;5020226;28;20596;-63
2021/09/19 12:02:13;;;;;;;5.13;2.40;;;;;;;;;;5023596;28;20073;-63
2021/09/19 12:04:40;;;;;;;;;;;;;;;;;;5017448;28;20080;-64
2021/09/19 12:07:09;;;;;;;3.63;2.40;;;;;;;;;;5025422;28;19968;-64
2021/09/19 12:09:41;;;;;;;5.88;2.13;;;;;;;;;;5025017;28;20144;-63
2021/09/19 12:12:11;;;;;;;2.45;2.00;;;;;;;;;;5021958;28;20082;-63
2021/09/19 12:14:42;;;;;;;3.03;2.20;;;;;;;;;;5025201;28;20049;-64
2021/09/19 12:17:12;;;;;;;2.25;1.85;;;;;;;;;;5027734;28;21394;-63
2021/09/19 12:19:41;;;;;;;2.65;2.17;;;;;;;;;;5029564;28;20128;-63
2021/09/19 12:22:09;;;;;;;2.75;2.20;;;;;;;;;;5026795;28;20054;-63
2021/09/19 12:24:37;;;;;;;3.20;2.13;;;;;;;;;;5026005;28;20085;-63
2021/09/19 12:27:15;;;;;;;4.30;2.42;;;;;;;;;;5023976;28;20106;-63
2021/09/19 12:29:42;;;;;;;3.97;2.33;;;;;;;;;;5021174;28;20136;-64
2021/09/19 12:32:09;;;;;;;;;;;;;;;;;;5023853;28;20560;-63
2021/09/19 12:34:35;;;;;;;6.00;2.40;;;;;;;;;;5023174;28;19972;-63
2021/09/19 12:37:01;;;;;;;5.75;2.38;;;;;;;;;;5023819;28;20133;-63
2021/09/19 12:39:33;;;;;;;2.33;2.10;;;;;;;;;;5023650;28;20124;-63
2021/09/19 12:42:00;;;;;;;2.30;2.10;;;;;;;;;;5016865;28;20595;-63
2021/09/19 12:44:28;;;;;;;3.17;2.20;;;;;;;;;;5030677;28;20435;-64
2021/09/19 12:46:57;;;;;;;4.22;2.33;;;;;;;;;;5023894;28;20517;-63
2021/09/19 12:49:25;;;;;;;3.47;2.10;;;;;;;;;;5023000;28;20509;-63
2021/09/19 12:51:51;;;;;;;;;;;;;;;;;;5026874;28;20556;-63
2021/09/19 12:54:24;;;;;;;2.42;1.90;;;;;;;;;;5021622;28;19965;-63
2021/09/19 12:56:50;;;;;;;3.67;2.03;;;;;;;;;;5021270;28;20088;-63
2021/09/19 12:59:17;;;;;;;2.63;1.92;;;;;;;;;;5025053;28;20170;-63
2021/09/19 13:01:43;;;;;;;2.47;1.80;;;;;;;;;;5022852;28;20133;-63
2021/09/19 13:04:10;;;;;;;3.13;2.42;;;;;;;;;;5026293;28;20049;-63
2021/09/19 13:06:36;;;;;;;5.35;2.40;;;;;;;;;;5020692;28;20730;-63
2021/09/19 13:09:03;;;;;;;2.35;1.80;;;;;;;;;;5023676;28;20137;-63
2021/09/19 13:11:30;;;;;;;4.47;1.90;;;;;;;;;;5027907;28;20113;-63
2021/09/19 13:13:56;;;;;;;2.22;1.80;;;;;;;;;;5013950;28;20088;-63
2021/09/19 13:16:23;;;;;;;2.10;1.90;;;;;;;;;;5019968;28;20129;-63
2021/09/19 13:18:49;;;;;;;2.85;1.80;;;;;;;;;;5022296;28;20085;-63
2021/09/19 13:21:15;;;;;;;1.60;1.50;;;;;;;;;;5024677;28;20104;-63
2021/09/19 13:23:42;;;;;;;3.40;1.30;;;;;;;;;;5030328;28;20049;-63
2021/09/19 13:26:09;;;;;;;2.95;1.85;;;;;;;;;;5025532;28;20083;-63
2021/09/19 13:28:35;;;;;;;2.20;1.90;;;;;;;;;;5022358;28;20472;-63
2021/09/19 13:31:02;;;;;;;2.97;1.50;;;;;;;;;;5022245;28;20128;-63
2021/09/19 13:33:29;;;;;;;2.28;1.80;;;;;;;;;;5024064;28;20517;-63
2021/09/19 13:35:55;;;;;;;3.03;1.60;;;;;;;;;;5025200;28;20555;-63
2021/09/19 13:38:22;;;;;;;2.70;1.60;;;;;;;;;;5023580;28;20088;-63
2021/09/19 13:40:48;;;;;;;3.72;1.60;;;;;;;;;;5022469;28;20464;-63
2021/09/19 13:43:14;;;;;;;1.60;1.50;;;;;;;;;;5026214;28;20488;-63
2021/09/19 13:45:41;;;;;;;2.53;1.63;;;;;;;;;;5020420;28;20049;-63
2021/09/19 13:48:07;;;;;;;3.15;1.65;;;;;;;;;;5021508;28;20136;-63
2021/09/19 13:50:34;;;;;;;1.85;1.67;;;;;;;;;;5023561;28;20580;-63
2021/09/19 13:53:01;;;;;;;4.90;2.45;;;;;;;;;;5025590;28;20054;-63
2021/09/19 13:55:27;;;;;;;2.25;1.70;;;;;;;;;;5026054;28;20140;-63
2021/09/19 13:57:53;;;;;;;3.25;1.90;;;;;;;;;;5022692;28;20605;-63
2021/09/19 14:00:22;;;;;;;2.50;1.70;;;;;;;;;;5020534;28;20179;-63
2021/09/19 14:02:48;;;;;;;2.28;1.60;;;;;;;;;;5027234;28;20137;-63
2021/09/19 14:05:15;;;;;;;2.22;1.80;;;;;;;;;;5020252;28;20128;-63
2021/09/19 14:07:44;;;;;;;3.67;1.98;;;;;;;;;;5018376;28;20125;-63
2021/09/19 14:10:11;;;;;;;2.45;1.75;;;;;;;;;;5024449;28;20462;-63
2021/09/19 14:12:37;;;;;;;3.57;1.53;;;;;;;;;;5025533;28;20057;-63
2021/09/19 14:15:04;;;;;;;2.67;1.63;;;;;;;;;;5019767;28;20054;-63
2021/09/19 14:17:31;;;;;;;2.22;1.55;;;;;;;;;;5020632;28;20088;-63
2021/09/19 14:19:58;;;;;;;1.70;1.50;;;;;;;;;;5021998;28;20055;-63
2021/09/19 14:22:25;;;;;;;2.92;1.67;;;;;;;;;;5020685;28;20132;-64
2021/09/19 14:24:51;;;;;;;3.00;1.77;;;;;;;;;;5000900;28;20585;-64
2021/09/19 14:27:18;;;;;;;2.75;1.77;;;;;;;;;;5025144;28;20046;-64
2021/09/19 14:29:45;;;;;;;2.28;1.75;;;;;;;;;;5020819;28;20144;-64
2021/09/19 14:32:11;;;;;;;1.67;1.58;;;;;;;;;;5020582;28;20456;-64
2021/09/19 14:34:37;;;;;;;1.98;1.75;;;;;;;;;;5022995;28;20058;-64
2021/09/19 14:37:05;;;;;;;2.50;1.90;;;;;;;;;;5023776;28;20140;-64
2021/09/19 14:39:31;;;;;;;3.03;1.90;;;;;;;;;;5016003;28;20087;-64
2021/09/19 14:41:57;;;;;;;3.25;1.80;;;;;;;;;;5024930;28;20125;-64
2021/09/19 14:44:24;;;;;;;1.75;1.50;;;;;;;;;;5020593;28;20089;-64
2021/09/19 14:46:50;;;;;;;2.28;1.80;;;;;;;;;;5024400;28;20115;-64